sensor_id;sensor_type;location;lat;lon;timestamp;temperature;humidity
10441;DHT22;5268;49.346;9.522;2023-11-21T04:05:47;9.20;99.90
10441;DHT22;5268;49.346;9.522;2023-11-21T04:10:49;9.30;99.90
10441;DHT22;5268;49.346;9.522;2023-11-21T04:15:51;9.30;99.90
10441;DHT22;5268;49.346;9.522;2023-11-21T04:20:54;9.30;99.90
10441;DHT22;5268;49.346;9.522;2023-11-21T04:25:57;9.30;99.90
10441;DHT22;5268;49.346;9.522;2023-11-21T04:30:59;9.30;99.90
10441;DHT22;5268;49.346;9.522;2023-11-21T04:36:03;9.30;99.90
10441;DHT22;5268;49.346;9.522;2023-11-21T04:41:06;9.30;99.90
10441;DHT22;5268;49.346;9.522;2023-11-21T04:46:08;9.30;99.90
10441;DHT22;5268;49.346;9.522;2023-11-21T04:51:12;9.30;99.90
10441;DHT22;5268;49.346;9.522;2023-11-21T04:56:14;9.30;99.90
10441;DHT22;5268;49.346;9.522;2023-11-21T05:01:16;9.30;99.90
10441;DHT22;5268;49.346;9.522;2023-11-21T05:06:20;9.30;99.90
10441;DHT22;5268;49.346;9.522;2023-11-21T05:11:25;9.30;99.90
10441;DHT22;5268;49.346;9.522;2023-11-21T05:16:27;9.30;99.90
10441;DHT22;5268;49.346;9.522;2023-11-21T05:21:30;9.30;99.90
10441;DHT22;5268;49.346;9.522;2023-11-21T05:26:32;9.30;99.90
10441;DHT22;5268;49.346;9.522;2023-11-21T05:31:34;9.30;99.90
10441;DHT22;5268;49.346;9.522;2023-11-21T05:36:38;9.30;99.90
10441;DHT22;5268;49.346;9.522;2023-11-21T05:41:40;9.30;99.90
10441;DHT22;5268;49.346;9.522;2023-11-21T05:46:42;9.30;99.90
10441;DHT22;5268;49.346;9.522;2023-11-21T05:51:46;9.30;99.90
10441;DHT22;5268;49.346;9.522;2023-11-21T05:56:48;9.30;99.90
10441;DHT22;5268;49.346;9.522;2023-11-21T06:01:50;9.30;99.90
10441;DHT22;5268;49.346;9.522;2023-11-21T06:06:54;9.30;99.90
10441;DHT22;5268;49.346;9.522;2023-11-21T06:11:56;9.40;99.90
10441;DHT22;5268;49.346;9.522;2023-11-21T06:16:58;9.40;99.90
10441;DHT22;5268;49.346;9.522;2023-11-21T06:22:01;9.40;99.90
10441;DHT22;5268;49.346;9.522;2023-11-21T06:27:04;9.40;99.90
10441;DHT22;5268;49.346;9.522;2023-11-21T06:32:06;9.40;99.90
10441;DHT22;5268;49.346;9.522;2023-11-21T06:37:10;9.40;99.90
10441;DHT22;5268;49.346;9.522;2023-11-21T06:42:13;9.40;99.90
10441;DHT22;5268;49.346;9.522;2023-11-21T06:47:16;9.40;99.90
10441;DHT22;5268;49.346;9.522;2023-11-21T06:52:20;9.40;99.90
10441;DHT22;5268;49.346;9.522;2023-11-21T06:57:23;9.40;99.90
10441;DHT22;5268;49.346;9.522;2023-11-21T07:02:25;9.50;99.90
10441;DHT22;5268;49.346;9.522;2023-11-21T07:07:29;9.50;99.90
10441;DHT22;5268;49.346;9.522;2023-11-21T07:12:31;9.50;99.90
10441;DHT22;5268;49.346;9.522;2023-11-21T07:17:33;9.50;99.90
10441;DHT22;5268;49.346;9.522;2023-11-21T07:22:37;9.50;99.90
10441;DHT22;5268;49.346;9.522;2023-11-21T07:27:39;9.50;99.90
10441;DHT22;5268;49.346;9.522;2023-11-21T07:32:41;9.60;99.90
10441;DHT22;5268;49.346;9.522;2023-11-21T07:37:45;9.60;99.90
10441;DHT22;5268;49.346;9.522;2023-11-21T07:42:48;9.60;99.90
10441;DHT22;5268;49.346;9.522;2023-11-21T07:47:50;9.70;99.90
10441;DHT22;5268;49.346;9.522;2023-11-21T07:52:54;9.70;99.90
10441;DHT22;5268;49.346;9.522;2023-11-21T07:57:56;9.80;99.90
10441;DHT22;5268;49.346;9.522;2023-11-21T08:02:58;9.80;99.90
10441;DHT22;5268;49.346;9.522;2023-11-21T08:08:01;9.80;99.90
10441;DHT22;5268;49.346;9.522;2023-11-21T08:13:03;9.90;99.90
10441;DHT22;5268;49.346;9.522;2023-11-21T08:18:06;9.90;99.90
10441;DHT22;5268;49.346;9.522;2023-11-21T08:23:10;9.90;99.90
10441;DHT22;5268;49.346;9.522;2023-11-21T08:28:12;9.90;99.90
10441;DHT22;5268;49.346;9.522;2023-11-21T08:33:14;9.90;99.90
10441;DHT22;5268;49.346;9.522;2023-11-21T08:38:18;9.90;99.90
10441;DHT22;5268;49.346;9.522;2023-11-21T08:43:20;9.90;99.90
10441;DHT22;5268;49.346;9.522;2023-11-21T08:48:22;9.90;99.90
10441;DHT22;5268;49.346;9.522;2023-11-21T08:53:25;10.00;99.90
10441;DHT22;5268;49.346;9.522;2023-11-21T08:58:27;9.90;99.90
10441;DHT22;5268;49.346;9.522;2023-11-21T09:03:29;10.00;99.90
10441;DHT22;5268;49.346;9.522;2023-11-21T09:08:34;10.00;99.90
10441;DHT22;5268;49.346;9.522;2023-11-21T09:13:36;10.10;99.90
10441;DHT22;5268;49.346;9.522;2023-11-21T09:18:38;10.00;99.90
10441;DHT22;5268;49.346;9.522;2023-11-21T09:23:43;10.10;99.90
10441;DHT22;5268;49.346;9.522;2023-11-21T09:28:45;10.10;99.90
10441;DHT22;5268;49.346;9.522;2023-11-21T09:33:48;10.20;99.90
10441;DHT22;5268;49.346;9.522;2023-11-21T09:38:51;10.30;99.90
10441;DHT22;5268;49.346;9.522;2023-11-21T09:43:57;10.30;99.90
10441;DHT22;5268;49.346;9.522;2023-11-21T09:49:02;10.30;99.90
10441;DHT22;5268;49.346;9.522;2023-11-21T09:54:11;10.20;99.90
10441;DHT22;5268;49.346;9.522;2023-11-21T09:59:15;10.10;99.90
10441;DHT22;5268;49.346;9.522;2023-11-21T10:04:17;10.10;99.90
10441;DHT22;5268;49.346;9.522;2023-11-21T10:09:23;10.00;99.90
10441;DHT22;5268;49.346;9.522;2023-11-21T10:14:28;10.00;99.90
10441;DHT22;5268;49.346;9.522;2023-11-21T10:19:30;9.90;99.90
10441;DHT22;5268;49.346;9.522;2023-11-21T10:24:34;9.90;99.90
10441;DHT22;5268;49.346;9.522;2023-11-21T10:29:39;9.80;99.90
10441;DHT22;5268;49.346;9.522;2023-11-21T10:34:42;9.90;99.90
10441;DHT22;5268;49.346;9.522;2023-11-21T10:39:45;10.00;99.90
10441;DHT22;5268;49.346;9.522;2023-11-21T10:44:48;10.00;99.90
10441;DHT22;5268;49.346;9.522;2023-11-21T10:49:51;10.00;99.90
10441;DHT22;5268;49.346;9.522;2023-11-21T10:54:56;10.10;99.90
10441;DHT22;5268;49.346;9.522;2023-11-21T10:59:59;10.20;99.90
10441;DHT22;5268;49.346;9.522;2023-11-21T11:05:02;10.30;99.90
10441;DHT22;5268;49.346;9.522;2023-11-21T11:10:09;10.40;99.90
10441;DHT22;5268;49.346;9.522;2023-11-21T11:15:16;10.40;99.90
10441;DHT22;5268;49.346;9.522;2023-11-21T11:20:18;10.50;99.90
10441;DHT22;5268;49.346;9.522;2023-11-21T11:25:53;10.50;99.90
10441;DHT22;5268;49.346;9.522;2023-11-21T11:31:05;10.50;99.90
10441;DHT22;5268;49.346;9.522;2023-11-21T11:36:17;10.50;99.90
10441;DHT22;5268;49.346;9.522;2023-11-21T11:41:31;10.50;99.90
10441;DHT22;5268;49.346;9.522;2023-11-21T11:46:41;10.50;99.90
10441;DHT22;5268;49.346;9.522;2023-11-21T11:51:45;10.50;99.90
10441;DHT22;5268;49.346;9.522;2023-11-21T11:56:49;10.80;99.90
10441;DHT22;5268;49.346;9.522;2023-11-21T12:01:51;11.10;99.90
10441;DHT22;5268;49.346;9.522;2023-11-21T12:06:53;11.10;99.90
10441;DHT22;5268;49.346;9.522;2023-11-21T12:11:58;11.10;99.90
10441;DHT22;5268;49.346;9.522;2023-11-21T12:17:00;11.10;99.90
10441;DHT22;5268;49.346;9.522;2023-11-21T12:22:05;11.10;99.90
10441;DHT22;5268;49.346;9.522;2023-11-21T12:27:10;11.00;99.90
10441;DHT22;5268;49.346;9.522;2023-11-21T12:32:15;10.90;99.90
10441;DHT22;5268;49.346;9.522;2023-11-21T12:37:19;10.80;99.90
10441;DHT22;5268;49.346;9.522;2023-11-21T12:42:22;10.70;99.90
10441;DHT22;5268;49.346;9.522;2023-11-21T12:47:24;10.70;99.90
10441;DHT22;5268;49.346;9.522;2023-11-21T12:52:26;10.60;99.90
10441;DHT22;5268;49.346;9.522;2023-11-21T12:57:30;10.60;99.90
10441;DHT22;5268;49.346;9.522;2023-11-21T13:02:32;10.70;99.90
10441;DHT22;5268;49.346;9.522;2023-11-21T13:07:41;10.70;99.90
10441;DHT22;5268;49.346;9.522;2023-11-21T13:12:48;10.70;99.90
10441;DHT22;5268;49.346;9.522;2023-11-21T13:17:52;10.70;99.90
10441;DHT22;5268;49.346;9.522;2023-11-21T13:22:57;10.70;99.90
10441;DHT22;5268;49.346;9.522;2023-11-21T13:28:01;10.70;99.90
10441;DHT22;5268;49.346;9.522;2023-11-21T13:33:03;10.80;99.90
10441;DHT22;5268;49.346;9.522;2023-11-21T13:38:09;10.80;99.90
10441;DHT22;5268;49.346;9.522;2023-11-21T13:43:13;10.70;99.90
10441;DHT22;5268;49.346;9.522;2023-11-21T13:48:16;10.80;99.90
10441;DHT22;5268;49.346;9.522;2023-11-21T13:53:25;10.80;99.90
10441;DHT22;5268;49.346;9.522;2023-11-21T13:58:29;10.90;99.90
10441;DHT22;5268;49.346;9.522;2023-11-21T14:03:42;10.90;99.90
10441;DHT22;5268;49.346;9.522;2023-11-21T14:08:52;10.90;99.90
10441;DHT22;5268;49.346;9.522;2023-11-21T14:13:58;10.90;99.90
10441;DHT22;5268;49.346;9.522;2023-11-21T14:19:01;10.90;99.90
10441;DHT22;5268;49.346;9.522;2023-11-21T14:24:15;11.00;99.90
10441;DHT22;5268;49.346;9.522;2023-11-21T14:29:19;11.00;99.90
10441;DHT22;5268;49.346;9.522;2023-11-21T14:34:23;11.00;99.90
10441;DHT22;5268;49.346;9.522;2023-11-21T14:39:27;11.10;99.90
10441;DHT22;5268;49.346;9.522;2023-11-21T14:44:30;11.00;99.90
10441;DHT22;5268;49.346;9.522;2023-11-21T14:49:38;10.90;99.90
10441;DHT22;5268;49.346;9.522;2023-11-21T14:54:52;10.90;99.90
10441;DHT22;5268;49.346;9.522;2023-11-21T15:00:17;10.80;99.90
10441;DHT22;5268;49.346;9.522;2023-11-21T15:05:44;10.80;99.90
10441;DHT22;5268;49.346;9.522;2023-11-21T15:10:46;10.70;99.90
10441;DHT22;5268;49.346;9.522;2023-11-21T15:15:54;10.70;99.90
10441;DHT22;5268;49.346;9.522;2023-11-21T15:20:56;10.70;99.90
10441;DHT22;5268;49.346;9.522;2023-11-21T15:25:58;10.70;99.90
10441;DHT22;5268;49.346;9.522;2023-11-21T15:31:03;10.60;99.90
10441;DHT22;5268;49.346;9.522;2023-11-21T15:36:06;10.50;99.90
10441;DHT22;5268;49.346;9.522;2023-11-21T15:41:10;10.40;99.90
10441;DHT22;5268;49.346;9.522;2023-11-21T15:46:14;10.40;99.90
10441;DHT22;5268;49.346;9.522;2023-11-21T15:51:16;10.40;99.90
10441;DHT22;5268;49.346;9.522;2023-11-21T15:56:18;10.40;99.90
10441;DHT22;5268;49.346;9.522;2023-11-21T16:01:21;10.30;99.90
10441;DHT22;5268;49.346;9.522;2023-11-21T16:06:23;10.30;99.90
10441;DHT22;5268;49.346;9.522;2023-11-21T16:11:25;10.20;99.90
10441;DHT22;5268;49.346;9.522;2023-11-21T16:16:32;10.10;99.90
10441;DHT22;5268;49.346;9.522;2023-11-21T16:21:34;10.10;99.90
10441;DHT22;5268;49.346;9.522;2023-11-21T16:26:36;10.10;99.90
10441;DHT22;5268;49.346;9.522;2023-11-21T16:31:40;10.00;99.90
10441;DHT22;5268;49.346;9.522;2023-11-21T16:36:42;10.00;99.90
10441;DHT22;5268;49.346;9.522;2023-11-21T16:41:45;10.00;99.90
10441;DHT22;5268;49.346;9.522;2023-11-21T16:46:50;10.00;99.90
10441;DHT22;5268;49.346;9.522;2023-11-21T16:51:53;10.00;99.90
10441;DHT22;5268;49.346;9.522;2023-11-21T16:56:56;9.90;99.90
10441;DHT22;5268;49.346;9.522;2023-11-21T17:01:59;9.90;99.90
10441;DHT22;5268;49.346;9.522;2023-11-21T17:07:01;9.90;99.90
10441;DHT22;5268;49.346;9.522;2023-11-21T17:12:05;9.90;99.90
10441;DHT22;5268;49.346;9.522;2023-11-21T17:17:09;9.90;99.90
10441;DHT22;5268;49.346;9.522;2023-11-21T17:22:14;9.80;99.90
10441;DHT22;5268;49.346;9.522;2023-11-21T17:27:16;9.80;99.90
10441;DHT22;5268;49.346;9.522;2023-11-21T17:32:19;9.80;99.90
10441;DHT22;5268;49.346;9.522;2023-11-21T17:37:21;9.80;99.90
10441;DHT22;5268;49.346;9.522;2023-11-21T17:42:23;9.70;99.90
10441;DHT22;5268;49.346;9.522;2023-11-21T17:47:26;9.70;99.90
10441;DHT22;5268;49.346;9.522;2023-11-21T17:52:29;9.60;99.90
10441;DHT22;5268;49.346;9.522;2023-11-21T17:57:32;9.50;99.90
10441;DHT22;5268;49.346;9.522;2023-11-21T18:02:37;9.40;99.90
10441;DHT22;5268;49.346;9.522;2023-11-21T18:07:39;9.40;99.90
10441;DHT22;5268;49.346;9.522;2023-11-21T18:12:41;9.30;99.90
10441;DHT22;5268;49.346;9.522;2023-11-21T18:17:45;9.30;99.90
10441;DHT22;5268;49.346;9.522;2023-11-21T18:22:47;9.30;99.90
10441;DHT22;5268;49.346;9.522;2023-11-21T18:27:49;9.20;99.90
10441;DHT22;5268;49.346;9.522;2023-11-21T18:32:52;9.20;99.90
10441;DHT22;5268;49.346;9.522;2023-11-21T18:37:54;9.10;99.90
10441;DHT22;5268;49.346;9.522;2023-11-21T18:42:56;9.10;99.90
10441;DHT22;5268;49.346;9.522;2023-11-21T18:48:00;9.10;99.90
10441;DHT22;5268;49.346;9.522;2023-11-21T18:53:04;9.10;99.90
10441;DHT22;5268;49.346;9.522;2023-11-21T18:58:06;9.00;99.90
10441;DHT22;5268;49.346;9.522;2023-11-21T19:03:10;9.00;99.90
10441;DHT22;5268;49.346;9.522;2023-11-21T19:08:13;9.00;99.90
10441;DHT22;5268;49.346;9.522;2023-11-21T19:13:15;9.00;99.90
10441;DHT22;5268;49.346;9.522;2023-11-21T19:18:20;9.00;99.90
10441;DHT22;5268;49.346;9.522;2023-11-21T19:23:22;9.00;99.90
10441;DHT22;5268;49.346;9.522;2023-11-21T19:28:24;9.00;99.90
10441;DHT22;5268;49.346;9.522;2023-11-21T19:33:28;9.00;99.90
10441;DHT22;5268;49.346;9.522;2023-11-21T19:38:30;9.00;99.90
10441;DHT22;5268;49.346;9.522;2023-11-21T19:43:32;9.00;99.90
10441;DHT22;5268;49.346;9.522;2023-11-21T19:48:38;9.00;99.90
10441;DHT22;5268;49.346;9.522;2023-11-21T19:53:41;9.00;99.90
10441;DHT22;5268;49.346;9.522;2023-11-21T19:58:43;9.00;99.90
10441;DHT22;5268;49.346;9.522;2023-11-21T20:03:47;9.00;99.90
10441;DHT22;5268;49.346;9.522;2023-11-21T20:08:49;8.90;99.90
10441;DHT22;5268;49.346;9.522;2023-11-21T20:13:52;8.90;99.90
10441;DHT22;5268;49.346;9.522;2023-11-21T20:18:55;8.80;99.90
10441;DHT22;5268;49.346;9.522;2023-11-21T20:23:57;8.80;99.90
10441;DHT22;5268;49.346;9.522;2023-11-21T20:29:00;8.80;99.90
10441;DHT22;5268;49.346;9.522;2023-11-21T20:34:03;8.80;99.90
10441;DHT22;5268;49.346;9.522;2023-11-21T20:39:06;8.70;99.90
10441;DHT22;5268;49.346;9.522;2023-11-21T20:44:08;8.70;99.90
10441;DHT22;5268;49.346;9.522;2023-11-21T20:49:12;8.70;99.90
10441;DHT22;5268;49.346;9.522;2023-11-21T20:54:14;8.80;99.90
10441;DHT22;5268;49.346;9.522;2023-11-21T20:59:16;8.80;99.90
10441;DHT22;5268;49.346;9.522;2023-11-21T21:04:20;8.80;99.90
10441;DHT22;5268;49.346;9.522;2023-11-21T21:09:22;8.80;99.90
10441;DHT22;5268;49.346;9.522;2023-11-21T21:14:24;8.80;99.90
10441;DHT22;5268;49.346;9.522;2023-11-21T21:19:31;8.80;99.90
10441;DHT22;5268;49.346;9.522;2023-11-21T21:24:33;8.90;99.90
10441;DHT22;5268;49.346;9.522;2023-11-21T21:29:35;8.90;99.90
10441;DHT22;5268;49.346;9.522;2023-11-21T21:34:38;8.80;99.90
10441;DHT22;5268;49.346;9.522;2023-11-21T21:39:41;8.80;99.90
10441;DHT22;5268;49.346;9.522;2023-11-21T21:44:45;8.50;99.90
10441;DHT22;5268;49.346;9.522;2023-11-21T21:49:49;8.30;99.90
10441;DHT22;5268;49.346;9.522;2023-11-21T21:54:51;8.10;99.90
10441;DHT22;5268;49.346;9.522;2023-11-21T21:59:53;7.90;99.90
10441;DHT22;5268;49.346;9.522;2023-11-21T22:04:56;7.90;99.90
10441;DHT22;5268;49.346;9.522;2023-11-21T22:09:58;7.60;99.90
10441;DHT22;5268;49.346;9.522;2023-11-21T22:15:01;7.40;99.90
10441;DHT22;5268;49.346;9.522;2023-11-21T22:20:07;7.10;99.90
10441;DHT22;5268;49.346;9.522;2023-11-21T22:25:11;7.20;99.90
10441;DHT22;5268;49.346;9.522;2023-11-21T22:30:14;7.10;99.90
10441;DHT22;5268;49.346;9.522;2023-11-21T22:35:17;7.10;99.90
10441;DHT22;5268;49.346;9.522;2023-11-21T22:40:19;7.10;99.90
10441;DHT22;5268;49.346;9.522;2023-11-21T22:45:22;7.00;99.90
10441;DHT22;5268;49.346;9.522;2023-11-21T22:50:26;7.00;99.90
